Time;durP1;ratioP1;P1;durP2;ratioP2;P2;SDS_P1;SDS_P2;PMS_P1;PMS_P2;Temp;Humidity;BMP_temperature;BMP_pressure;BME280_temperature;BME280_humidity;BME280_pressure;Samples;Min_cycle;Max_cycle;Signal;HPM_P1;HPM_P2
2022/09/20 00:00:45;;;;;;;2.77;1.70;;;9.90;59.20;;;;;;5054047;28;46445;-66
2022/09/20 00:03:12;;;;;;;2.57;1.73;;;9.90;59.40;;;;;;5057164;28;46413;-66
2022/09/20 00:05:39;;;;;;;4.10;1.83;;;10.00;58.30;;;;;;5050102;28;46381;-66
2022/09/20 00:08:07;;;;;;;4.07;1.50;;;10.10;58.30;;;;;;5046851;28;46666;-66
2022/09/20 00:10:35;;;;;;;4.00;1.70;;;10.20;58.00;;;;;;5049665;28;45901;-66
2022/09/20 00:13:01;;;;;;;3.53;1.80;;;10.20;58.20;;;;;;5048472;28;46468;-65
2022/09/20 00:15:28;;;;;;;3.73;1.93;;;10.10;58.50;;;;;;5047977;28;46466;-66
2022/09/20 00:17:53;;;;;;;4.03;1.97;;;10.00;58.80;;;;;;5048193;28;47355;-66
2022/09/20 00:20:19;;;;;;;4.27;1.67;;;9.90;60.00;;;;;;5045637;28;46925;-66
2022/09/20 00:22:48;;;;;;;5.40;1.90;;;9.80;60.50;;;;;;5049485;28;46443;-65
2022/09/20 00:25:14;;;;;;;4.33;1.80;;;9.70;60.90;;;;;;5050508;28;46374;-66
2022/09/20 00:27:40;;;;;;;2.70;2.00;;;9.50;61.40;;;;;;5048594;28;48157;-65
2022/09/20 00:30:07;;;;;;;4.47;2.40;;;9.40;62.00;;;;;;5052410;28;45878;-66
2022/09/20 00:32:32;;;;;;;3.40;2.40;;;9.30;62.30;;;;;;5050421;28;46359;-65
2022/09/20 00:35:07;;;;;;;4.87;3.00;;;9.20;62.60;;;;;;5050548;28;45807;-65
2022/09/20 00:37:42;;;;;;;3.17;2.10;;;9.10;62.90;;;;;;5048554;28;46119;-65
2022/09/20 00:40:19;;;;;;;3.33;2.00;;;9.00;62.90;;;;;;5051879;28;46353;-66
2022/09/20 00:42:45;;;;;;;5.70;2.00;;;8.90;63.00;;;;;;5045482;28;45798;-66
2022/09/20 00:45:11;;;;;;;5.37;2.63;;;8.90;63.20;;;;;;5050538;28;46573;-66
2022/09/20 00:47:57;;;;;;;4.83;2.20;;;8.90;63.10;;;;;;5046620;28;48204;-66
2022/09/20 00:50:51;;;;;;;4.10;2.00;;;8.90;62.80;;;;;;5048318;28;46347;-66
2022/09/20 00:53:27;;;;;;;6.67;2.47;;;8.80;62.50;;;;;;5050315;28;46327;-65
2022/09/20 00:56:07;;;;;;;7.27;2.30;;;8.80;62.50;;;;;;5049567;28;46389;-66
2022/09/20 00:58:38;;;;;;;7.37;2.30;;;8.80;62.50;;;;;;5047873;28;48115;-66
2022/09/20 01:01:04;;;;;;;5.03;2.13;;;8.80;62.30;;;;;;5050778;28;46191;-66
2022/09/20 01:03:32;;;;;;;5.03;2.50;;;8.80;62.00;;;;;;5050214;28;46410;-66
2022/09/20 01:06:02;;;;;;;5.33;2.10;;;8.80;61.90;;;;;;5048597;28;46536;-66
2022/09/20 01:08:29;;;;;;;4.00;2.20;;;8.80;61.90;;;;;;5047296;28;49223;-66
2022/09/20 01:10:54;;;;;;;4.60;2.40;;;8.70;61.90;;;;;;5050168;28;46338;-65
2022/09/20 01:13:20;;;;;;;3.57;2.33;;;8.70;61.80;;;;;;5047453;28;46343;-65
2022/09/20 01:15:48;;;;;;;6.93;2.43;;;8.60;61.90;;;;;;5047248;28;47063;-65
2022/09/20 01:18:15;;;;;;;3.50;2.17;;;8.60;62.10;;;;;;5046751;28;47388;-66
2022/09/20 01:20:44;;;;;;;8.20;2.60;;;8.50;62.30;;;;;;5054512;28;46685;-65
2022/09/20 01:23:44;;;;;;;4.77;2.43;;;8.40;62.70;;;;;;5050536;28;46459;-65
2022/09/20 01:26:50;;;;;;;4.33;2.00;;;8.30;63.10;;;;;;5047794;28;46488;-65
2022/09/20 01:29:55;;;;;;;3.50;2.17;;;8.10;63.70;;;;;;5046316;28;46312;-64
2022/09/20 01:32:24;;;;;;;3.20;2.13;;;8.00;63.60;;;;;;5047948;28;46558;-66
2022/09/20 01:34:56;;;;;;;3.47;2.10;;;7.90;63.60;;;;;;5046373;28;46475;-65
2022/09/20 01:37:26;;;;;;;3.90;2.63;;;7.80;63.70;;;;;;5049165;28;46488;-65
2022/09/20 01:40:04;;;;;;;6.87;2.93;;;7.70;64.10;;;;;;5043089;28;46444;-66
2022/09/20 01:42:36;;;;;;;6.37;2.40;;;7.60;64.40;;;;;;5046361;28;46449;-64
2022/09/20 01:45:17;;;;;;;4.70;2.47;;;7.60;64.40;;;;;;5057465;28;46456;-66
2022/09/20 01:47:56;;;;;;;4.30;2.93;;;7.50;64.50;;;;;;5051977;28;46586;-66
2022/09/20 01:50:50;;;;;;;6.50;2.90;;;7.60;64.70;;;;;;5053542;28;47146;-65
2022/09/20 01:53:28;;;;;;;4.30;2.87;;;7.50;64.60;;;;;;5052474;28;46704;-65
2022/09/20 01:55:56;;;;;;;6.43;3.13;;;7.50;64.70;;;;;;5055412;28;46442;-65
2022/09/20 01:58:59;;;;;;;5.70;3.40;;;7.40;64.80;;;;;;5052290;28;46340;-65
2022/09/20 02:01:49;;;;;;;7.20;3.47;;;7.30;65.00;;;;;;5050456;28;46990;-65
2022/09/20 02:04:39;;;;;;;6.77;3.30;;;7.30;65.00;;;;;;5060015;28;46441;-66
2022/09/20 02:07:38;;;;;;;6.17;3.20;;;7.30;65.00;;;;;;5050633;28;46420;-65
2022/09/20 02:10:35;;;;;;;6.17;3.50;;;7.30;64.80;;;;;;5051330;28;46374;-64
2022/09/20 02:13:28;;;;;;;6.37;3.07;;;7.30;64.50;;;;;;5053569;28;46715;-64
2022/09/20 02:16:29;;;;;;;4.77;2.80;;;7.40;64.30;;;;;;5048847;28;46351;-65
2022/09/20 02:19:15;;;;;;;4.77;2.90;;;7.60;63.90;;;;;;5056307;28;46500;-65
2022/09/20 02:22:13;;;;;;;7.60;3.37;;;7.60;63.30;;;;;;5045110;28;46616;-65
2022/09/20 02:24:44;;;;;;;4.63;2.93;;;7.70;63.40;;;;;;5051782;28;46570;-65
2022/09/20 02:27:54;;;;;;;9.27;3.13;;;7.90;62.90;;;;;;5031588;28;46437;-65
2022/09/20 02:30:46;;;;;;;5.43;2.80;;;8.00;62.60;;;;;;4993740;28;46642;-64
2022/09/20 02:33:25;;;;;;;6.40;3.00;;;8.10;62.50;;;;;;5052255;28;45974;-64
2022/09/20 02:35:54;;;;;;;7.20;2.90;;;8.10;62.30;;;;;;5050063;28;47964;-66
2022/09/20 02:38:42;;;;;;;8.63;3.50;;;8.20;62.20;;;;;;5048673;28;46413;-65
2022/09/20 02:41:28;;;;;;;9.77;2.97;;;8.10;62.00;;;;;;5050366;28;46464;-66
2022/09/20 02:44:08;;;;;;;5.83;2.80;;;8.30;62.10;;;;;;5054202;28;46328;-65
2022/09/20 02:46:52;;;;;;;7.43;3.10;;;8.40;62.00;;;;;;5048913;28;47056;-65
2022/09/20 02:49:36;;;;;;;4.67;2.93;;;8.50;62.00;;;;;;5049513;28;46494;-65
2022/09/20 02:52:33;;;;;;;5.30;2.47;;;8.50;61.80;;;;;;5049134;28;46473;-65
2022/09/20 02:55:12;;;;;;;6.33;3.00;;;8.50;62.00;;;;;;5050440;28;45912;-65
2022/09/20 02:58:15;;;;;;;4.10;2.80;;;8.60;62.30;;;;;;5046334;28;47447;-66
2022/09/20 03:01:16;;;;;;;7.13;3.47;;;8.50;62.50;;;;;;5052537;28;46628;-65
2022/09/20 03:03:56;;;;;;;7.03;2.80;;;8.40;62.90;;;;;;5049949;28;46551;-65
2022/09/20 03:06:46;;;;;;;9.33;3.10;;;8.30;63.10;;;;;;5056105;28;46435;-65
2022/09/20 03:09:30;;;;;;;7.03;3.10;;;8.30;63.50;;;;;;5055808;28;47361;-65
2022/09/20 03:12:10;;;;;;;6.13;2.53;;;8.30;63.90;;;;;;5050667;28;46040;-64
2022/09/20 03:14:46;;;;;;;6.93;2.90;;;8.30;63.70;;;;;;5048449;28;46420;-65
2022/09/20 03:17:30;;;;;;;8.23;2.90;;;8.30;63.50;;;;;;5052103;28;46124;-65
2022/09/20 03:20:08;;;;;;;5.20;2.90;;;8.40;63.30;;;;;;5057386;28;47042;-65
2022/09/20 03:23:04;;;;;;;4.47;2.60;;;8.40;63.10;;;;;;5051482;28;46334;-66
2022/09/20 03:25:56;;;;;;;4.80;3.03;;;8.50;62.90;;;;;;5048359;28;46002;-66
2022/09/20 03:28:30;;;;;;;3.40;2.37;;;8.60;62.90;;;;;;5052758;28;45883;-65
2022/09/20 03:31:27;;;;;;;7.27;2.40;;;8.60;62.90;;;;;;5051696;28;48733;-65
2022/09/20 03:33:56;;;;;;;7.20;3.00;;;8.50;62.90;;;;;;5048731;28;46548;-65
2022/09/20 03:36:53;;;;;;;4.30;2.50;;;8.50;62.90;;;;;;5050307;28;46410;-65
2022/09/20 03:39:30;;;;;;;5.70;2.83;;;8.50;62.90;;;;;;5057651;28;46684;-66
2022/09/20 03:42:00;;;;;;;5.70;2.90;;;8.50;62.90;;;;;;5050241;28;46394;-65
2022/09/20 03:44:38;;;;;;;8.00;2.63;;;8.40;62.60;;;;;;5046972;28;46450;-65
2022/09/20 03:47:48;;;;;;;4.47;2.73;;;8.40;62.90;;;;;;5052809;28;46610;-66
2022/09/20 03:50:55;;;;;;;8.03;2.77;;;8.50;63.00;;;;;;5049724;28;46275;-66
2022/09/20 03:53:32;;;;;;;5.40;2.23;;;8.60;62.90;;;;;;5047091;28;46552;-66
2022/09/20 03:56:29;;;;;;;4.90;2.33;;;8.60;62.60;;;;;;5051018;28;46286;-65
2022/09/20 03:59:21;;;;;;;4.53;2.80;;;8.70;62.70;;;;;;5050760;28;45866;-65
2022/09/20 04:01:55;;;;;;;6.63;2.50;;;8.70;62.70;;;;;;5059198;28;45872;-65
2022/09/20 04:04:27;;;;;;;9.67;2.70;;;8.70;62.50;;;;;;5049562;28;47016;-65
2022/09/20 04:07:27;;;;;;;5.63;2.57;;;8.70;62.60;;;;;;5050933;28;45991;-65
2022/09/20 04:10:14;;;;;;;12.13;3.93;;;8.80;62.60;;;;;;5045493;28;46802;-65
2022/09/20 04:12:59;;;;;;;7.90;2.80;;;8.90;62.50;;;;;;5050667;28;46318;-65
2022/09/20 04:15:36;;;;;;;7.47;2.97;;;8.80;62.40;;;;;;5046984;28;46985;-66
2022/09/20 04:18:06;;;;;;;6.20;2.80;;;8.80;62.50;;;;;;5050210;28;46432;-66
2022/09/20 04:20:45;;;;;;;5.83;2.90;;;8.90;62.60;;;;;;5052311;28;46395;-67
2022/09/20 04:23:31;;;;;;;11.00;2.13;;;8.90;62.70;;;;;;5049055;28;46412;-65
2022/09/20 04:25:59;;;;;;;7.80;2.63;;;8.90;62.80;;;;;;5046884;28;46255;-66
2022/09/20 04:28:47;;;;;;;5.93;2.67;;;8.80;62.90;;;;;;5050440;28;46291;-65
2022/09/20 04:31:31;;;;;;;7.90;3.30;;;8.80;62.70;;;;;;5047519;28;46510;-65
2022/09/20 04:33:59;;;;;;;10.33;2.87;;;8.80;62.60;;;;;;5054607;28;46470;-66
2022/09/20 04:36:49;;;;;;;10.00;3.33;;;8.80;62.50;;;;;;5049930;28;47147;-65
2022/09/20 04:39:31;;;;;;;6.80;3.00;;;8.80;62.50;;;;;;5050498;28;46251;-65
2022/09/20 04:42:15;;;;;;;3.93;2.40;;;8.80;62.40;;;;;;5053117;28;46369;-65
2022/09/20 04:45:02;;;;;;;8.60;2.80;;;8.90;62.50;;;;;;5049058;28;46435;-66
2022/09/20 04:47:48;;;;;;;6.90;2.90;;;8.90;62.40;;;;;;5047773;28;47182;-66
2022/09/20 04:50:40;;;;;;;4.17;2.63;;;8.90;62.40;;;;;;5045715;28;46275;-65
2022/09/20 04:53:17;;;;;;;4.27;2.57;;;8.90;62.30;;;;;;5056906;28;46461;-66
2022/09/20 04:55:51;;;;;;;7.00;3.97;;;8.90;62.30;;;;;;5048058;28;46362;-65
2022/09/20 04:58:57;;;;;;;8.43;2.90;;;8.90;62.20;;;;;;5047599;28;47302;-65
2022/09/20 05:01:54;;;;;;;6.80;3.07;;;8.90;62.30;;;;;;5050600;28;46604;-66
2022/09/20 05:04:37;;;;;;;9.17;3.37;;;9.00;62.20;;;;;;5054272;28;45833;-66
2022/09/20 05:07:27;;;;;;;8.83;2.73;;;9.00;62.10;;;;;;5048506;28;46326;-66
2022/09/20 05:10:23;;;;;;;8.83;3.47;;;9.00;62.20;;;;;;5047963;28;47155;-66
2022/09/20 05:12:57;;;;;;;7.87;2.97;;;9.10;62.20;;;;;;5048682;28;46322;-66
2022/09/20 05:15:50;;;;;;;5.47;2.50;;;9.10;62.20;;;;;;5051378;28;45922;-66
2022/09/20 05:18:34;;;;;;;8.27;3.17;;;9.10;62.20;;;;;;5048745;28;46093;-65
2022/09/20 05:21:33;;;;;;;8.30;3.60;;;9.10;62.30;;;;;;5054786;28;46367;-66
2022/09/20 05:24:17;;;;;;;5.37;2.53;;;9.10;62.20;;;;;;5054148;28;46394;-65
2022/09/20 05:27:05;;;;;;;6.80;3.00;;;9.10;62.20;;;;;;5048864;28;46584;-65
2022/09/20 05:29:52;;;;;;;9.80;3.67;;;9.10;62.10;;;;;;5056753;28;46974;-65
2022/09/20 05:32:41;;;;;;;9.00;3.40;;;9.20;62.30;;;;;;5053281;28;46061;-66
2022/09/20 05:35:14;;;;;;;6.17;2.80;;;9.30;62.10;;;;;;5050284;28;46353;-66
2022/09/20 05:38:05;;;;;;;7.07;3.23;;;9.30;61.80;;;;;;5046613;28;45850;-65
2022/09/20 05:40:59;;;;;;;8.00;3.77;;;9.40;61.70;;;;;;5054295;28;46382;-65
2022/09/20 05:43:58;;;;;;;8.33;3.23;;;9.50;61.70;;;;;;5055953;28;47069;-66
2022/09/20 05:46:39;;;;;;;11.23;4.03;;;9.60;61.70;;;;;;5027754;28;46711;-66
2022/09/20 05:49:42;;;;;;;5.30;2.90;;;9.70;61.70;;;;;;5052010;28;45842;-66
2022/09/20 05:52:21;;;;;;;10.50;4.47;;;9.70;61.50;;;;;;5055985;28;46374;-65
2022/09/20 05:55:11;;;;;;;7.50;2.57;;;9.80;61.40;;;;;;5051899;28;46409;-65
2022/09/20 05:57:55;;;;;;;11.10;3.33;;;9.90;61.40;;;;;;5049279;28;46146;-66
2022/09/20 06:00:26;;;;;;;8.83;3.20;;;9.90;61.30;;;;;;5057039;28;46373;-66
2022/09/20 06:03:34;;;;;;;9.10;3.87;;;9.90;61.20;;;;;;5052541;28;46436;-66
2022/09/20 06:06:12;;;;;;;9.90;2.90;;;10.00;60.10;;;;;;5048745;28;46907;-66
2022/09/20 06:09:07;;;;;;;8.60;4.13;;;10.20;59.90;;;;;;5053174;28;45820;-66
2022/09/20 06:11:49;;;;;;;9.13;2.80;;;10.30;59.70;;;;;;5049362;28;45847;-65
2022/09/20 06:14:27;;;;;;;13.97;3.23;;;10.40;59.60;;;;;;5050140;28;46412;-66
2022/09/20 06:16:58;;;;;;;6.50;3.03;;;10.40;59.60;;;;;;5049962;28;46668;-66
2022/09/20 06:19:45;;;;;;;5.20;2.40;;;10.50;59.60;;;;;;5051818;28;45894;-66
2022/09/20 06:22:29;;;;;;;4.50;2.37;;;10.60;59.50;;;;;;5052901;28;46469;-66
2022/09/20 06:25:07;;;;;;;6.30;2.60;;;10.70;59.30;;;;;;5049125;28;46476;-66
2022/09/20 06:27:53;;;;;;;5.90;2.57;;;10.80;59.10;;;;;;5058240;28;46569;-66
2022/09/20 06:30:30;;;;;;;7.40;2.93;;;11.00;59.00;;;;;;5048605;28;46035;-66
2022/09/20 06:33:24;;;;;;;14.33;3.43;;;11.10;58.60;;;;;;5045505;28;46924;-66
2022/09/20 06:42:28;;;;;;;13.80;3.33;;;11.10;58.50;;;;;;5044070;28;46355;-64
2022/09/20 06:45:00;;;;;;;6.67;2.90;;;10.80;59.20;;;;;;5051662;28;46479;-64
2022/09/20 06:47:27;;;;;;;5.20;3.00;;;10.80;59.40;;;;;;5048401;28;46412;-66
2022/09/20 06:49:54;;;;;;;8.33;2.57;;;10.80;59.60;;;;;;5047095;28;49321;-65
2022/09/20 06:52:26;;;;;;;5.90;2.30;;;10.60;59.70;;;;;;5051000;28;46462;-65
2022/09/20 06:54:54;;;;;;;7.30;2.40;;;10.50;60.00;;;;;;5055146;28;46382;-66
2022/09/20 06:57:29;;;;;;;5.53;2.23;;;10.40;60.00;;;;;;5053444;28;46531;-66
2022/09/20 06:59:55;;;;;;;7.77;3.03;;;10.20;60.50;;;;;;5066188;27;47262;-66
2022/09/20 07:02:20;;;;;;;4.57;2.90;;;10.20;60.60;;;;;;5051075;28;46481;-66
2022/09/20 07:04:46;;;;;;;7.57;2.60;;;10.30;60.40;;;;;;5050622;28;46343;-66
2022/09/20 07:07:16;;;;;;;4.90;3.00;;;10.40;60.10;;;;;;5049457;28;46647;-66
2022/09/20 07:09:42;;;;;;;5.97;3.07;;;10.50;59.90;;;;;;5047216;28;46667;-65
2022/09/20 07:12:10;;;;;;;5.00;3.00;;;10.40;59.90;;;;;;5051391;28;46475;-66
2022/09/20 07:14:36;;;;;;;4.70;2.73;;;10.40;60.00;;;;;;5050780;28;46350;-66
2022/09/20 07:17:03;;;;;;;8.73;2.90;;;10.40;60.00;;;;;;5048277;28;46654;-66
2022/09/20 07:19:28;;;;;;;6.83;2.90;;;10.60;59.80;;;;;;5050405;28;46460;-65
2022/09/20 07:21:54;;;;;;;10.63;2.97;;;10.80;59.10;;;;;;5051218;28;46367;-66
2022/09/20 07:24:20;;;;;;;6.10;2.83;;;10.90;58.90;;;;;;5048821;28;46379;-65
2022/09/20 07:27:00;;;;;;;5.10;2.80;;;11.00;58.60;;;;;;5049888;28;45881;-66
2022/09/20 07:29:27;;;;;;;5.70;2.93;;;11.00;58.50;;;;;;5050036;28;46597;-66
2022/09/20 07:31:53;;;;;;;4.37;2.47;;;11.10;58.60;;;;;;5048657;28;46330;-66
2022/09/20 07:34:19;;;;;;;7.50;3.00;;;11.10;58.70;;;;;;5047178;28;46444;-66
2022/09/20 07:36:45;;;;;;;6.63;3.27;;;11.10;58.80;;;;;;5054846;28;46352;-65
2022/09/20 07:39:11;;;;;;;7.13;3.30;;;11.30;58.70;;;;;;5051434;28;47201;-66
2022/09/20 07:41:36;;;;;;;5.73;2.90;;;11.60;58.20;;;;;;5050237;28;46475;-66
2022/09/20 07:44:20;;;;;;;9.17;4.10;;;11.70;57.70;;;;;;5047493;28;46375;-66
2022/09/20 07:46:54;;;;;;;12.37;4.03;;;11.90;57.80;;;;;;5048268;28;46595;-66
2022/09/20 07:49:21;;;;;;;6.00;3.40;;;12.10;57.70;;;;;;5049365;28;46433;-66
2022/09/20 07:51:48;;;;;;;11.13;3.63;;;12.30;57.20;;;;;;5046543;28;46553;-67
2022/09/20 07:54:14;;;;;;;7.80;3.00;;;12.70;56.50;;;;;;5052270;28;46353;-66
2022/09/20 07:56:40;;;;;;;6.07;2.93;;;12.90;55.80;;;;;;5054813;28;46563;-65
2022/09/20 07:59:06;;;;;;;14.57;3.93;;;12.70;56.40;;;;;;5051580;28;46656;-65
2022/09/20 08:01:32;;;;;;;10.23;3.50;;;12.50;56.70;;;;;;5053821;28;46378;-66
2022/09/20 08:03:57;;;;;;;7.10;3.13;;;12.30;57.30;;;;;;5050130;28;46306;-66
2022/09/20 08:06:23;;;;;;;13.10;3.80;;;12.10;57.70;;;;;;5048813;28;46365;-66
2022/09/20 08:08:50;;;;;;;10.90;5.53;;;12.00;58.20;;;;;;5045260;28;47024;-65
2022/09/20 08:11:24;;;;;;;9.97;3.03;;;11.90;58.10;;;;;;5049242;28;46275;-66
2022/09/20 08:13:52;;;;;;;7.60;2.67;;;11.90;58.40;;;;;;5050011;28;46196;-66
2022/09/20 08:16:18;;;;;;;13.00;3.03;;;12.00;58.10;;;;;;5051248;28;46484;-65
2022/09/20 08:18:49;;;;;;;7.97;2.73;;;12.40;57.60;;;;;;5047318;28;46498;-66
2022/09/20 08:21:15;;;;;;;6.40;2.60;;;12.60;56.60;;;;;;5047969;28;46350;-66
2022/09/20 08:23:44;;;;;;;9.13;3.50;;;12.70;56.30;;;;;;5054662;28;46060;-66
2022/09/20 08:26:12;;;;;;;9.67;2.93;;;12.90;56.20;;;;;;5050539;28;46665;-66
2022/09/20 08:28:39;;;;;;;6.07;2.77;;;13.10;55.50;;;;;;5045890;28;47919;-66
2022/09/20 08:31:09;;;;;;;8.33;2.90;;;13.30;55.40;;;;;;5050007;28;46482;-66
2022/09/20 08:33:38;;;;;;;10.97;3.50;;;13.30;54.80;;;;;;5046240;28;46441;-66
2022/09/20 08:36:05;;;;;;;6.57;3.60;;;13.00;55.50;;;;;;5050218;28;46522;-67
2022/09/20 08:38:31;;;;;;;7.97;4.13;;;12.80;55.90;;;;;;5045531;28;47094;-66
2022/09/20 08:41:06;;;;;;;9.73;4.30;;;12.40;56.90;;;;;;5047856;28;46484;-67
2022/09/20 08:43:43;;;;;;;8.63;4.00;;;12.30;56.80;;;;;;5044201;28;46429;-66
2022/09/20 08:46:14;;;;;;;10.30;4.53;;;12.50;56.10;;;;;;5049520;28;46564;-65
2022/09/20 08:48:40;;;;;;;11.70;3.80;;;13.00;55.00;;;;;;5047172;28;46580;-66
2022/09/20 08:51:11;;;;;;;8.20;3.30;;;13.00;54.40;;;;;;5049971;28;46422;-65
2022/09/20 08:53:45;;;;;;;8.97;3.63;;;13.10;54.50;;;;;;5047495;28;46306;-66
2022/09/20 08:56:11;;;;;;;7.70;3.40;;;13.30;53.90;;;;;;5047965;28;45769;-66
2022/09/20 08:58:38;;;;;;;5.83;3.37;;;13.50;53.60;;;;;;5046597;28;47204;-64
2022/09/20 09:01:04;;;;;;;8.90;3.40;;;13.60;53.30;;;;;;5047207;28;46371;-65
2022/09/20 09:03:31;;;;;;;8.50;3.50;;;13.70;52.40;;;;;;5046985;28;46249;-66
2022/09/20 09:05:58;;;;;;;14.13;3.60;;;13.70;53.00;;;;;;5052135;28;46291;-66
2022/09/20 09:08:35;;;;;;;7.53;2.70;;;14.00;52.40;;;;;;5050045;28;47029;-65
2022/09/20 09:11:10;;;;;;;10.40;3.03;;;14.00;51.70;;;;;;5047526;28;45737;-65
2022/09/20 09:13:47;;;;;;;8.90;2.67;;;14.00;51.10;;;;;;5045889;27;46464;-65
2022/09/20 09:16:15;;;;;;;8.13;2.67;;;13.90;51.20;;;;;;5044597;28;46464;-65
2022/09/20 09:18:44;;;;;;;9.37;3.03;;;13.60;51.60;;;;;;5047721;28;46764;-65
2022/09/20 09:21:18;;;;;;;6.73;2.73;;;13.40;51.30;;;;;;5050166;28;46295;-65
2022/09/20 09:24:00;;;;;;;5.70;2.17;;;13.40;51.20;;;;;;5053569;28;46448;-65
2022/09/20 09:26:25;;;;;;;15.77;3.13;;;13.40;50.50;;;;;;5045465;28;46646;-65
2022/09/20 09:29:17;;;;;;;8.57;2.90;;;13.40;50.10;;;;;;5050916;28;47123;-65
2022/09/20 09:31:44;;;;;;;10.80;3.97;;;13.60;49.90;;;;;;5045752;28;46417;-66
2022/09/20 09:34:29;;;;;;;13.10;3.73;;;13.70;49.30;;;;;;5047125;28;46682;-65
2022/09/20 09:36:56;;;;;;;9.60;2.33;;;13.50;49.00;;;;;;5046146;28;46622;-65
2022/09/20 09:39:28;;;;;;;10.87;3.03;;;13.30;49.30;;;;;;5047894;28;46624;-65
2022/09/20 09:41:54;;;;;;;11.17;3.63;;;13.10;49.50;;;;;;5050412;28;46395;-65
2022/09/20 09:44:20;;;;;;;16.03;2.77;;;13.00;50.00;;;;;;5046014;28;46424;-65
2022/09/20 09:46:46;;;;;;;12.20;3.13;;;13.20;49.90;;;;;;5051671;28;45851;-65
2022/09/20 09:49:18;;;;;;;6.13;2.83;;;13.30;49.60;;;;;;5043858;28;47171;-65
2022/09/20 09:52:11;;;;;;;5.50;2.90;;;13.30;49.50;;;;;;5045847;28;46401;-65
2022/09/20 09:54:52;;;;;;;8.03;2.80;;;13.40;49.20;;;;;;5054046;28;46361;-65
2022/09/20 09:57:45;;;;;;;7.60;2.80;;;13.30;48.70;;;;;;5046561;28;46424;-65
2022/09/20 10:00:18;;;;;;;5.50;2.47;;;13.30;49.00;;;;;;5046473;28;46383;-65
2022/09/20 10:03:08;;;;;;;4.53;2.67;;;13.50;48.60;;;;;;5045690;28;46464;-65
2022/09/20 10:05:49;;;;;;;14.20;3.47;;;13.50;47.90;;;;;;5049475;28;46440;-67
2022/09/20 10:08:14;;;;;;;6.63;2.60;;;13.60;47.40;;;;;;5047803;28;46517;-66
2022/09/20 10:10:46;;;;;;;7.03;2.73;;;13.60;47.20;;;;;;5049147;28;47998;-66
2022/09/20 10:13:31;;;;;;;9.30;2.80;;;13.60;47.10;;;;;;5048284;28;46583;-67
2022/09/20 10:16:09;;;;;;;10.50;3.20;;;13.80;46.60;;;;;;5046880;28;46171;-66
2022/09/20 10:18:57;;;;;;;7.23;3.00;;;14.10;46.20;;;;;;5050736;28;46330;-66
2022/09/20 10:22:08;;;;;;;9.90;2.80;;;14.00;45.40;;;;;;5049653;28;47247;-66
2022/09/20 10:25:00;;;;;;;10.57;2.30;;;14.00;45.50;;;;;;5042208;28;46385;-67
2022/09/20 10:27:59;;;;;;;8.40;2.13;;;14.00;45.30;;;;;;5056100;28;46432;-67
2022/09/20 10:30:40;;;;;;;5.20;2.20;;;14.00;45.10;;;;;;5048444;28;46342;-66
2022/09/20 10:33:09;;;;;;;8.73;2.50;;;14.30;44.80;;;;;;5048036;28;47386;-67
2022/09/20 10:35:54;;;;;;;3.40;1.70;;;14.40;44.30;;;;;;5047843;28;46591;-66
2022/09/20 10:38:31;;;;;;;9.63;2.50;;;14.50;42.80;;;;;;5051679;28;46668;-66
2022/09/20 10:44:19;;;;;;;5.87;2.60;;;14.60;43.10;;;;;;5047609;28;46951;-65
2022/09/20 10:46:50;;;;;;;8.30;2.20;;;14.70;41.00;;;;;;5047955;28;46860;-65
2022/09/20 10:49:39;;;;;;;6.90;2.67;;;14.80;41.80;;;;;;5045522;28;46410;-65
2022/09/20 10:52:47;;;;;;;10.20;2.63;;;14.80;41.30;;;;;;5055519;28;45852;-65
2022/09/20 10:55:28;;;;;;;8.80;2.30;;;14.80;41.20;;;;;;5052767;28;48374;-63
2022/09/20 10:58:06;;;;;;;11.07;2.50;;;14.70;41.30;;;;;;5047297;28;46389;-66
2022/09/20 11:00:31;;;;;;;7.33;2.20;;;14.60;41.00;;;;;;5038667;28;46651;-65
2022/09/20 11:03:35;;;;;;;9.10;2.93;;;14.60;41.30;;;;;;5049564;28;46591;-65
2022/09/20 11:06:07;;;;;;;7.40;2.40;;;14.70;41.50;;;;;;5049197;28;46348;-66
2022/09/20 11:08:37;;;;;;;8.43;2.60;;;14.90;41.60;;;;;;5043763;28;46413;-66
2022/09/20 11:11:22;;;;;;;6.97;2.80;;;14.90;40.80;;;;;;5050385;28;46204;-66
2022/09/20 11:13:54;;;;;;;8.90;2.40;;;14.90;40.50;;;;;;5043469;28;46842;-66
2022/09/20 11:16:25;;;;;;;9.63;2.30;;;14.80;39.50;;;;;;5046810;28;46429;-66
2022/09/20 11:19:04;;;;;;;4.37;1.90;;;14.90;39.60;;;;;;5049182;28;46295;-66
2022/09/20 11:21:52;;;;;;;8.80;2.27;;;15.00;39.00;;;;;;5044822;28;46749;-65
2022/09/20 11:24:32;;;;;;;8.03;2.17;;;14.80;38.80;;;;;;5040314;28;46635;-66
2022/09/20 11:27:01;;;;;;;7.80;2.20;;;14.70;39.10;;;;;;5044180;28;47002;-65
2022/09/20 11:29:44;;;;;;;9.30;2.47;;;14.70;38.80;;;;;;5051417;28;46431;-65
2022/09/20 11:32:16;;;;;;;6.33;2.40;;;14.70;39.30;;;;;;5045861;28;46302;-65
2022/09/20 11:34:58;;;;;;;8.70;2.70;;;14.60;39.10;;;;;;5045062;28;46406;-64
2022/09/20 11:37:36;;;;;;;7.30;2.23;;;14.60;39.00;;;;;;5039052;28;46623;-65
2022/09/20 11:40:14;;;;;;;9.53;3.90;;;14.50;39.30;;;;;;5017257;27;45867;-65
2022/09/20 11:42:41;;;;;;;4.90;1.90;;;14.30;40.80;;;;;;5013038;28;47563;-63
2022/09/20 11:46:32;;;;;;;4.37;1.90;;;14.40;39.80;;;;;;5056943;27;46266;-64
2022/09/20 11:49:36;;;;;;;10.23;2.50;;;14.60;39.30;;;;;;5061474;28;46419;-64
2022/09/20 11:52:20;;;;;;;7.20;2.07;;;14.70;37.80;;;;;;5058286;28;46483;-65
2022/09/20 11:55:03;;;;;;;8.60;2.10;;;14.70;37.50;;;;;;5062429;28;46495;-64
2022/09/20 11:57:29;;;;;;;5.73;2.00;;;14.70;37.50;;;;;;5050987;28;46667;-65
2022/09/20 11:59:59;;;;;;;10.50;2.07;;;14.80;37.50;;;;;;5068257;27;46485;-65
2022/09/20 12:02:35;;;;;;;14.60;2.73;;;15.00;36.90;;;;;;5099057;27;46417;-65
2022/09/20 12:05:04;;;;;;;4.93;1.80;;;15.30;36.20;;;;;;5076907;27;46495;-65
2022/09/20 12:07:42;;;;;;;9.40;1.87;;;15.40;35.30;;;;;;5077735;27;46426;-64
2022/09/20 12:10:25;;;;;;;13.33;2.47;;;15.80;35.40;;;;;;5080782;27;46505;-64
2022/09/20 12:12:58;;;;;;;3.43;1.60;;;15.80;34.10;;;;;;5084839;27;46680;-64
2022/09/20 12:15:31;;;;;;;9.10;2.07;;;16.00;34.40;;;;;;5079113;27;46529;-64
2022/09/20 12:17:57;;;;;;;5.47;1.87;;;16.00;33.90;;;;;;5080583;27;48670;-64
2022/09/20 12:20:31;;;;;;;8.67;2.10;;;15.80;33.10;;;;;;5078281;27;46555;-64
2022/09/20 12:23:34;;;;;;;7.90;2.30;;;15.90;34.00;;;;;;5091069;27;45778;-65
2022/09/20 12:26:01;;;;;;;12.47;2.10;;;16.10;33.60;;;;;;5089699;27;46432;-68
2022/09/20 12:29:00;;;;;;;7.70;1.60;;;16.20;32.00;;;;;;5080761;27;46767;-67
2022/09/20 12:31:32;;;;;;;9.20;1.90;;;16.10;32.70;;;;;;5085048;27;46441;-65
2022/09/20 12:33:58;;;;;;;10.30;2.30;;;16.10;33.20;;;;;;5081830;27;46333;-64
2022/09/20 12:36:25;;;;;;;9.37;2.20;;;15.90;32.80;;;;;;5084042;27;46563;-65
2022/09/20 12:39:12;;;;;;;9.20;2.10;;;15.70;32.00;;;;;;5084017;27;48011;-65
2022/09/20 12:41:49;;;;;;;9.43;2.20;;;15.70;32.00;;;;;;5074775;27;46455;-65
2022/09/20 12:44:23;;;;;;;5.77;2.00;;;15.80;32.40;;;;;;5073603;27;46598;-66
2022/09/20 12:46:56;;;;;;;7.30;1.97;;;15.70;32.30;;;;;;5081504;27;46482;-65
2022/09/20 12:55:38;;;;;;;6.20;1.60;;;15.60;30.00;;;;;;5086174;27;46523;-64
2022/09/20 12:58:13;;;;;;;6.23;1.87;;;15.30;29.80;;;;;;5064451;28;46563;-65
2022/09/20 13:01:03;;;;;;;9.10;1.90;;;15.10;29.70;;;;;;5063971;28;47097;-66
2022/09/20 13:03:41;;;;;;;7.30;2.20;;;14.90;29.60;;;;;;5066221;28;46471;-66
2022/09/20 13:06:12;;;;;;;6.50;1.80;;;14.70;30.10;;;;;;5076712;27;45909;-68
2022/09/20 13:08:56;;;;;;;3.10;1.70;;;14.50;30.50;;;;;;5066784;27;46487;-65
2022/09/20 13:11:38;;;;;;;10.77;2.33;;;14.40;31.10;;;;;;5063729;28;46659;-65
2022/09/20 13:14:06;;;;;;;6.47;2.10;;;14.70;31.40;;;;;;5068565;28;46351;-64
2022/09/20 13:16:38;;;;;;;7.20;1.90;;;14.80;31.10;;;;;;5063799;28;46761;-65
2022/09/20 13:19:16;;;;;;;7.43;1.60;;;14.90;30.90;;;;;;5062138;28;46357;-66
2022/09/20 13:21:53;;;;;;;9.23;1.70;;;14.80;30.50;;;;;;5070986;28;48008;-65
2022/09/20 13:24:22;;;;;;;6.73;1.70;;;14.70;31.20;;;;;;5079766;27;46514;-66
2022/09/20 13:26:49;;;;;;;7.87;1.80;;;14.60;31.10;;;;;;5065660;28;46409;-66
2022/09/20 13:29:38;;;;;;;6.43;1.43;;;14.50;30.80;;;;;;5065307;28;46577;-65
2022/09/20 13:32:30;;;;;;;6.93;1.67;;;14.70;31.60;;;;;;5063856;27;47211;-64
2022/09/20 13:35:17;;;;;;;5.73;1.80;;;14.80;30.60;;;;;;5076946;28;46433;-64
2022/09/20 13:37:54;;;;;;;5.70;1.30;;;15.00;30.80;;;;;;5062898;28;46465;-65
2022/09/20 13:40:37;;;;;;;4.40;1.40;;;15.10;29.70;;;;;;5063157;28;46433;-64
2022/09/20 13:43:05;;;;;;;3.57;1.07;;;15.10;29.30;;;;;;5064314;28;47100;-64
2022/09/20 13:45:32;;;;;;;5.43;1.40;;;15.10;28.40;;;;;;5066522;28;46380;-64
2022/09/20 13:48:01;;;;;;;3.20;1.10;;;15.20;28.50;;;;;;5070586;28;46521;-65
2022/09/20 13:50:29;;;;;;;6.17;1.60;;;15.40;28.80;;;;;;5069243;28;46249;-65
2022/09/20 13:53:00;;;;;;;2.77;1.30;;;15.20;26.00;;;;;;5068034;27;47026;-62
2022/09/20 13:55:39;;;;;;;6.43;1.60;;;15.10;27.00;;;;;;5061139;28;46677;-62
2022/09/20 13:58:21;;;;;;;8.50;1.70;;;15.00;26.90;;;;;;5060029;28;46560;-63
2022/09/20 14:00:50;;;;;;;3.83;1.30;;;14.70;27.00;;;;;;5061375;28;46563;-62
2022/09/20 14:03:18;;;;;;;4.47;1.60;;;14.70;27.70;;;;;;5060126;28;48442;-64